Time;durP1;ratioP1;P1;durP2;ratioP2;P2;SDS_P1;SDS_P2;PMS_P1;PMS_P2;Temp;Humidity;BMP_temperature;BMP_pressure;BME280_temperature;BME280_humidity;BME280_pressure;Samples;Min_cycle;Max_cycle;Signal;HPM_P1;HPM_P2
2024/01/27 00:02:28;;;;;;;15.90;2.33;;;;;;;5.75;100.00;102769.75;6328637;28;20321;-72
2024/01/27 00:05:29;;;;;;;8.25;1.38;;;;;;;5.82;100.00;102756.69;6328309;28;20428;-72
2024/01/27 00:08:32;;;;;;;20.65;2.28;;;;;;;5.77;100.00;102770.63;6328187;28;20437;-72
2024/01/27 00:11:33;;;;;;;12.82;2.00;;;;;;;5.71;100.00;102773.22;6328173;28;20044;-72
2024/01/27 00:14:39;;;;;;;12.00;1.75;;;;;;;5.58;100.00;102775.81;6327911;28;20052;-72
2024/01/27 00:17:40;;;;;;;12.77;1.58;;;;;;;5.61;100.00;102774.97;6327853;28;20044;-71
2024/01/27 00:20:41;;;;;;;9.48;1.48;;;;;;;5.53;100.00;102788.00;6328227;28;20048;-71
2024/01/27 00:23:44;;;;;;;14.85;1.40;;;;;;;5.56;100.00;102785.41;6327881;28;20059;-71
2024/01/27 00:26:45;;;;;;;11.15;2.33;;;;;;;5.30;100.00;102787.09;6327722;28;20059;-71
2024/01/27 00:29:47;;;;;;;9.20;1.95;;;;;;;5.22;100.00;102786.22;6349521;22;20052;-76
2024/01/27 00:32:48;;;;;;;16.48;1.63;;;;;;;5.36;100.00;102794.97;6319245;28;20044;-76
2024/01/27 00:35:49;;;;;;;14.25;1.73;;;;;;;5.32;100.00;102799.28;6319379;28;20425;-76
2024/01/27 00:38:52;;;;;;;20.15;3.45;;;;;;;5.29;100.00;102801.88;6327597;28;20344;-78
2024/01/27 00:41:54;;;;;;;10.00;1.33;;;;;;;5.21;100.00;102808.81;6327850;28;20052;-78
2024/01/27 00:44:56;;;;;;;9.75;1.75;;;;;;;5.24;100.00;102792.31;6311875;28;20334;-76
2024/01/27 00:47:57;;;;;;;13.68;1.83;;;;;;;5.27;100.00;102790.59;6326782;28;20048;-76
2024/01/27 00:50:58;;;;;;;16.08;1.58;;;;;;;5.03;100.00;102794.00;6327689;28;20051;-76
2024/01/27 00:54:01;;;;;;;9.88;1.48;;;;;;;5.13;100.00;102799.22;6327382;28;20055;-75
2024/01/27 00:57:03;;;;;;;7.10;1.05;;;;;;;4.98;100.00;102815.72;6326954;28;20083;-75
2024/01/27 01:00:06;;;;;;;6.55;1.67;;;;;;;4.91;100.00;102816.56;6327365;28;20047;-76
2024/01/27 01:03:07;;;;;;;12.38;1.48;;;;;;;5.02;100.00;102820.06;6327054;28;20056;-76
2024/01/27 01:06:09;;;;;;;25.38;1.92;;;;;;;5.04;100.00;102816.63;6326929;28;20054;-76
2024/01/27 01:09:11;;;;;;;16.35;2.30;;;;;;;5.09;100.00;102817.50;6327386;28;20048;-76
2024/01/27 01:12:14;;;;;;;20.42;2.20;;;;;;;5.11;100.00;102820.09;6327136;28;20471;-77
2024/01/27 01:15:16;;;;;;;16.02;1.45;;;;;;;4.98;100.00;102832.22;6326940;28;20044;-76
2024/01/27 01:18:17;;;;;;;8.27;1.25;;;;;;;5.02;100.00;102825.28;6326411;28;20052;-76
2024/01/27 01:21:18;;;;;;;13.70;1.80;;;;;;;4.94;100.00;102830.44;6326661;28;20051;-76
2024/01/27 01:24:21;;;;;;;12.02;1.58;;;;;;;4.90;100.00;102830.44;6326444;28;20059;-76
2024/01/27 01:27:22;;;;;;;10.10;2.28;;;;;;;4.70;100.00;102840.78;6325396;28;20052;-76
2024/01/27 01:30:24;;;;;;;11.18;1.30;;;;;;;4.56;100.00;102851.13;6326512;28;20068;-75
2024/01/27 01:33:25;;;;;;;17.92;2.72;;;;;;;4.62;100.00;102840.72;6326556;28;20051;-75
2024/01/27 01:36:26;;;;;;;20.63;1.77;;;;;;;4.45;100.00;102850.19;6325988;28;20055;-75
2024/01/27 01:39:29;;;;;;;22.30;2.97;;;;;;;4.42;100.00;102848.44;6326596;28;20048;-75
2024/01/27 01:42:30;;;;;;;11.20;1.42;;;;;;;4.52;100.00;102846.75;6326254;28;20051;-75
2024/01/27 01:45:32;;;;;;;15.18;1.77;;;;;;;4.42;100.00;102843.25;6326027;28;20059;-76
2024/01/27 01:48:33;;;;;;;18.10;3.15;;;;;;;4.54;100.00;102845.91;6325656;28;20341;-75
2024/01/27 01:51:35;;;;;;;14.57;1.67;;;;;;;4.41;100.00;102843.25;6326084;28;20047;-74
2024/01/27 01:54:38;;;;;;;13.82;1.85;;;;;;;4.52;100.00;102847.63;6326119;28;20056;-76
2024/01/27 01:57:39;;;;;;;18.17;1.33;;;;;;;4.37;100.00;102857.09;6325456;28;20055;-74
2024/01/27 02:00:41;;;;;;;16.30;1.80;;;;;;;4.58;100.00;102852.00;6325869;28;20071;-76
2024/01/27 02:03:52;;;;;;;10.20;1.73;;;;;;;4.58;100.00;102865.00;6325744;28;20052;-77
2024/01/27 02:06:53;;;;;;;26.73;2.13;;;;;;;4.58;100.00;102849.38;6325577;28;20059;-75
2024/01/27 02:09:56;;;;;;;13.13;1.38;;;;;;;4.77;100.00;102851.25;6325693;28;20055;-77
2024/01/27 02:12:58;;;;;;;23.58;4.10;;;;;;;4.64;100.00;102851.19;6325644;28;20060;-76
2024/01/27 02:15:59;;;;;;;10.23;1.92;;;;;;;4.60;100.00;102857.22;6325615;28;20047;-76
2024/01/27 02:19:01;;;;;;;14.63;2.40;;;;;;;4.53;100.00;102861.50;6306061;28;20044;-76
2024/01/27 02:22:02;;;;;;;20.42;2.17;;;;;;;4.47;100.00;102854.53;6300376;28;20044;-76
2024/01/27 02:25:06;;;;;;;15.45;2.47;;;;;;;4.57;100.00;102858.06;6300455;28;20064;-76
2024/01/27 02:28:07;;;;;;;22.98;2.22;;;;;;;4.41;100.00;102861.47;6299631;28;20449;-76
2024/01/27 02:31:09;;;;;;;16.63;2.30;;;;;;;4.58;100.00;102855.47;6313097;28;20047;-76
2024/01/27 02:34:10;;;;;;;10.77;1.65;;;;;;;4.53;100.00;102858.91;6306106;28;20048;-76
2024/01/27 02:37:11;;;;;;;14.25;1.65;;;;;;;4.49;100.00;102858.00;6300513;28;20048;-76
2024/01/27 02:40:14;;;;;;;15.95;2.03;;;;;;;4.49;100.00;102863.22;6316457;28;20440;-76
2024/01/27 02:43:15;;;;;;;13.35;1.70;;;;;;;4.37;100.00;102864.91;6325002;28;20044;-76
2024/01/27 02:46:18;;;;;;;16.38;2.15;;;;;;;4.33;100.00;102864.00;6324940;28;20048;-76
2024/01/27 02:49:20;;;;;;;8.57;1.55;;;;;;;4.45;100.00;102873.59;6325314;28;20048;-76
2024/01/27 02:52:21;;;;;;;23.75;2.17;;;;;;;4.39;100.00;102871.84;6325185;28;20052;-76
2024/01/27 02:55:24;;;;;;;6.85;1.55;;;;;;;4.50;100.00;102875.41;6325452;28;20047;-77
2024/01/27 02:58:25;;;;;;;12.43;1.40;;;;;;;4.47;100.00;102880.56;6324440;28;20048;-76
2024/01/27 03:01:26;;;;;;;19.60;2.42;;;;;;;4.49;100.00;102873.63;6325246;28;20345;-76
2024/01/27 03:04:28;;;;;;;9.07;2.28;;;;;;;4.41;100.00;102872.75;6324800;28;20055;-76
2024/01/27 03:07:29;;;;;;;11.13;1.45;;;;;;;4.47;100.00;102883.19;6324554;28;20578;-77
2024/01/27 03:10:32;;;;;;;17.60;1.92;;;;;;;4.43;100.00;102876.22;6315713;28;20127;-76
2024/01/27 03:13:33;;;;;;;19.70;1.80;;;;;;;4.26;100.00;102883.91;6299631;28;20429;-76
2024/01/27 03:16:35;;;;;;;6.65;1.80;;;;;;;4.25;100.00;102882.16;6298692;28;20052;-76
2024/01/27 03:19:36;;;;;;;17.92;2.70;;;;;;;4.22;100.00;102882.13;6299698;28;20135;-76
2024/01/27 03:22:40;;;;;;;17.98;2.17;;;;;;;4.16;100.00;102876.88;6299391;28;20143;-76
2024/01/27 03:25:42;;;;;;;12.07;1.65;;;;;;;4.31;100.00;102876.13;6298842;28;20041;-76
2024/01/27 03:28:44;;;;;;;17.65;1.67;;;;;;;4.39;100.00;102881.38;6298995;28;20051;-76
2024/01/27 03:31:45;;;;;;;8.85;1.85;;;;;;;4.40;100.00;102884.00;6299417;28;20048;-76
2024/01/27 03:34:46;;;;;;;21.52;2.20;;;;;;;4.23;100.00;102883.03;6299354;28;20049;-77
2024/01/27 03:37:49;;;;;;;13.07;2.45;;;;;;;4.38;100.00;102884.84;6298928;28;20048;-77
2024/01/27 03:40:51;;;;;;;12.05;1.55;;;;;;;4.30;100.00;102875.25;6299239;28;20045;-77
2024/01/27 03:43:53;;;;;;;12.23;2.00;;;;;;;4.18;100.00;102885.59;6299366;28;20094;-76
2024/01/27 03:46:54;;;;;;;22.30;3.85;;;;;;;4.35;100.00;102888.31;6299059;28;20048;-76
2024/01/27 03:49:55;;;;;;;8.43;1.63;;;;;;;4.25;100.00;102891.69;6299689;28;20048;-76
2024/01/27 03:52:57;;;;;;;9.65;1.65;;;;;;;4.19;100.00;102900.34;6303668;28;20060;-76
2024/01/27 03:56:02;;;;;;;10.60;2.15;;;;;;;4.31;100.00;102904.75;6303601;28;20051;-76
2024/01/27 03:59:06;;;;;;;12.20;1.77;;;;;;;4.42;100.00;102902.25;6303980;28;20049;-77
2024/01/27 04:02:07;;;;;;;12.27;1.80;;;;;;;4.15;100.00;102902.91;6303522;28;20178;-76
2024/01/27 04:05:08;;;;;;;5.28;1.58;;;;;;;4.20;100.00;102898.59;6303442;28;20048;-77
2024/01/27 04:08:10;;;;;;;16.25;2.42;;;;;;;3.79;100.00;102907.78;6303105;28;20437;-77
2024/01/27 04:11:21;;;;;;;6.70;1.98;;;;;;;3.81;100.00;102923.41;6303422;28;20055;-76
2024/01/27 04:14:22;;;;;;;9.75;2.13;;;;;;;3.78;100.00;102919.06;6303268;28;20181;-75
2024/01/27 04:17:24;;;;;;;13.00;2.28;;;;;;;3.83;100.00;102911.31;6302756;28;20055;-75
2024/01/27 04:20:25;;;;;;;11.90;2.10;;;;;;;3.96;100.00;102904.50;6303263;28;20041;-76
2024/01/27 04:23:26;;;;;;;10.00;2.05;;;;;;;3.81;100.00;102907.78;6303310;28;20044;-75
2024/01/27 04:26:29;;;;;;;10.65;2.47;;;;;;;4.04;100.00;102902.81;6302765;28;20052;-77
2024/01/27 04:29:30;;;;;;;15.93;2.22;;;;;;;3.95;100.00;102919.22;6310569;28;20045;-76
2024/01/27 04:32:32;;;;;;;12.65;1.73;;;;;;;4.05;100.00;102920.19;6314702;28;20052;-76
2024/01/27 04:35:33;;;;;;;11.65;2.55;;;;;;;3.97;100.00;102922.69;6318387;28;20124;-76
2024/01/27 04:38:34;;;;;;;7.45;1.67;;;;;;;4.10;100.00;102918.47;6317091;28;20040;-77
2024/01/27 04:41:42;;;;;;;10.55;1.88;;;;;;;4.05;100.00;102923.66;6327391;28;20044;-76
2024/01/27 04:44:43;;;;;;;15.93;2.00;;;;;;;4.12;100.00;102924.56;6327890;28;20125;-76
2024/01/27 04:47:45;;;;;;;9.43;2.35;;;;;;;4.03;100.00;102937.47;6327311;28;20052;-76
2024/01/27 04:50:46;;;;;;;12.85;2.30;;;;;;;4.12;100.00;102936.69;6327591;28;20388;-77
2024/01/27 04:53:48;;;;;;;10.07;2.63;;;;;;;4.04;100.00;102934.91;6327432;28;20126;-76
2024/01/27 04:56:50;;;;;;;11.85;2.08;;;;;;;4.11;100.00;102927.16;6327158;28;20059;-76
2024/01/27 04:59:52;;;;;;;15.95;2.60;;;;;;;4.14;100.00;102935.88;6327435;28;20422;-77
2024/01/27 05:02:53;;;;;;;10.90;2.33;;;;;;;4.12;100.00;102947.97;6327120;28;20451;-77
2024/01/27 05:05:55;;;;;;;13.40;2.58;;;;;;;4.13;100.00;102951.44;6327621;28;20388;-77
2024/01/27 05:08:56;;;;;;;5.07;1.25;;;;;;;4.16;100.00;102956.69;6326591;28;20059;-77
2024/01/27 05:12:00;;;;;;;13.57;1.83;;;;;;;4.20;100.00;102948.06;6327098;28;20051;-77
2024/01/27 05:15:01;;;;;;;13.35;2.13;;;;;;;4.09;100.00;102953.19;6326795;28;20048;-76
2024/01/27 05:18:03;;;;;;;16.42;3.45;;;;;;;4.05;100.00;102961.81;6317325;28;20052;-77
2024/01/27 05:21:05;;;;;;;10.82;2.00;;;;;;;4.06;100.00;102964.41;6310442;28;20051;-77
2024/01/27 05:24:06;;;;;;;11.50;1.83;;;;;;;4.01;100.00;102962.63;6309692;28;20059;-77
2024/01/27 05:27:09;;;;;;;17.23;3.83;;;;;;;3.96;100.00;102959.13;6295355;28;20044;-77
2024/01/27 05:30:11;;;;;;;12.20;2.40;;;;;;;3.95;100.00;102971.25;6310428;28;20048;-76
2024/01/27 05:33:12;;;;;;;12.00;1.70;;;;;;;4.01;100.00;102968.69;6326420;28;20055;-76
2024/01/27 05:36:14;;;;;;;14.13;2.47;;;;;;;4.05;100.00;102978.28;6321625;28;20055;-77
2024/01/27 05:39:15;;;;;;;10.10;2.03;;;;;;;3.94;100.00;102979.88;6292284;28;20045;-72
2024/01/27 05:42:18;;;;;;;6.32;2.03;;;;;;;3.90;100.00;102974.63;6290970;28;20044;-76
2024/01/27 05:45:19;;;;;;;15.13;2.97;;;;;;;3.83;100.00;102968.53;6300512;28;20040;-77
2024/01/27 05:48:21;;;;;;;19.70;2.42;;;;;;;3.86;100.00;102980.66;6288597;28;20098;-76
2024/01/27 05:51:23;;;;;;;10.15;2.42;;;;;;;3.83;100.00;102978.91;6288855;28;20048;-77
2024/01/27 05:54:25;;;;;;;9.30;2.08;;;;;;;3.72;100.00;102981.38;6300856;28;20048;-77
2024/01/27 05:57:27;;;;;;;11.55;2.10;;;;;;;3.70;100.00;102969.25;6300152;28;20429;-77
2024/01/27 06:00:29;;;;;;;10.60;1.95;;;;;;;3.74;100.00;102989.22;6289956;28;20052;-77
2024/01/27 06:03:31;;;;;;;17.83;2.38;;;;;;;3.73;100.00;102988.34;6287221;28;20045;-76
2024/01/27 06:06:32;;;;;;;7.30;2.55;;;;;;;3.73;100.00;102990.97;6286317;28;20045;-76
2024/01/27 06:09:33;;;;;;;8.68;1.60;;;;;;;3.75;100.00;102994.44;6286356;28;20049;-76
2024/01/27 06:12:36;;;;;;;6.65;1.73;;;;;;;3.60;100.00;102993.41;6287883;28;20420;-76
2024/01/27 06:15:38;;;;;;;13.85;1.98;;;;;;;3.65;100.00;102987.38;6287151;28;20047;-76
2024/01/27 06:18:39;;;;;;;12.05;2.75;;;;;;;3.63;100.00;102999.47;6287384;28;20055;-77
2024/01/27 06:21:40;;;;;;;17.27;3.50;;;;;;;3.70;100.00;103003.03;6287271;28;20045;-76
2024/01/27 06:24:43;;;;;;;9.90;2.28;;;;;;;3.63;100.00;103001.22;6287102;28;20060;-77
2024/01/27 06:27:46;;;;;;;10.23;1.95;;;;;;;3.62;100.00;103013.34;6286819;28;20134;-76
2024/01/27 06:30:48;;;;;;;8.30;2.17;;;;;;;3.54;100.00;103015.88;6317375;22;20471;-73
2024/01/27 06:33:49;;;;;;;10.40;2.28;;;;;;;3.64;100.00;103028.97;6334284;28;20048;-73
2024/01/27 06:36:50;;;;;;;15.82;2.15;;;;;;;3.67;100.00;103019.47;6338680;28;20428;-76
2024/01/27 06:39:52;;;;;;;8.98;3.05;;;;;;;3.67;100.00;103018.59;6336284;28;20665;-76
2024/01/27 06:42:54;;;;;;;14.90;2.08;;;;;;;3.65;100.00;103012.53;6344107;28;20051;-76
2024/01/27 06:45:57;;;;;;;8.23;1.48;;;;;;;3.56;100.00;103015.88;6341962;28;20115;-76
2024/01/27 06:48:58;;;;;;;8.93;1.83;;;;;;;3.39;100.00;103014.78;6349971;28;20048;-75
2024/01/27 06:52:00;;;;;;;10.32;2.22;;;;;;;3.27;100.00;103016.38;6347832;28;20048;-76
2024/01/27 06:55:01;;;;;;;7.18;1.98;;;;;;;3.27;100.00;103016.38;6340519;28;20040;-75
2024/01/27 06:58:04;;;;;;;5.78;1.90;;;;;;;3.43;100.00;103026.97;6339696;28;20452;-76
2024/01/27 07:01:08;;;;;;;10.68;2.90;;;;;;;3.45;100.00;103031.34;6336608;28;20049;-75
2024/01/27 07:04:09;;;;;;;10.40;1.80;;;;;;;3.52;100.00;103034.88;6335754;28;20051;-75
2024/01/27 07:07:11;;;;;;;4.15;1.42;;;;;;;3.49;100.00;103033.09;6335812;28;20352;-75
2024/01/27 07:10:12;;;;;;;10.68;1.75;;;;;;;3.54;100.00;103043.56;6335682;28;20451;-75
2024/01/27 07:13:15;;;;;;;10.20;1.60;;;;;;;3.56;100.00;103050.53;6336243;28;20352;-75
2024/01/27 07:16:16;;;;;;;9.57;2.45;;;;;;;3.58;100.00;103047.09;6336340;28;20051;-75
2024/01/27 07:19:18;;;;;;;15.60;2.33;;;;;;;3.58;100.00;103055.75;6332736;28;20051;-75
2024/01/27 07:22:19;;;;;;;16.80;1.83;;;;;;;3.43;100.00;103055.56;6335212;28;20231;-74
2024/01/27 07:25:20;;;;;;;20.02;2.08;;;;;;;3.38;100.00;103050.31;6339039;28;20051;-75
2024/01/27 07:28:23;;;;;;;6.05;1.85;;;;;;;3.43;100.00;103060.75;6335294;28;20047;-75
2024/01/27 07:31:26;;;;;;;12.45;2.42;;;;;;;3.47;100.00;103076.41;6346117;28;20050;-75
2024/01/27 07:34:27;;;;;;;13.30;2.90;;;;;;;3.48;100.00;103072.97;6354544;28;20044;-75
2024/01/27 07:37:29;;;;;;;16.70;2.13;;;;;;;3.58;100.00;103083.47;6354422;28;20055;-75
2024/01/27 07:40:30;;;;;;;9.15;2.10;;;;;;;3.56;100.00;103080.88;6342366;28;20040;-74
2024/01/27 07:43:33;;;;;;;13.40;2.30;;;;;;;3.58;100.00;103086.94;6350721;28;20047;-74
2024/01/27 07:46:34;;;;;;;22.33;2.67;;;;;;;3.53;100.00;103089.50;6353538;28;20047;-74
2024/01/27 07:49:36;;;;;;;9.05;2.63;;;;;;;3.55;100.00;103090.41;6339870;28;20040;-75
2024/01/27 07:52:37;;;;;;;16.90;2.90;;;;;;;3.61;100.00;103086.13;6342189;28;20043;-76
2024/01/27 07:55:39;;;;;;;7.10;1.83;;;;;;;3.58;100.00;103083.47;6342607;28;20055;-75
2024/01/27 07:58:41;;;;;;;13.23;2.60;;;;;;;3.63;100.00;103090.47;6328704;28;20436;-76
2024/01/27 08:01:43;;;;;;;12.93;3.20;;;;;;;3.71;100.00;103090.59;6328699;28;20090;-75
2024/01/27 08:04:44;;;;;;;11.95;2.08;;;;;;;3.69;100.00;103085.38;6328623;28;20322;-76
2024/01/27 08:07:45;;;;;;;21.48;2.92;;;;;;;3.64;100.00;103097.44;6328118;28;20351;-75
2024/01/27 08:10:47;;;;;;;5.63;2.00;;;;;;;3.73;100.00;103094.09;6328358;28;20341;-76
2024/01/27 08:13:50;;;;;;;14.63;2.15;;;;;;;3.80;100.00;103096.78;6328301;28;20052;-76
2024/01/27 08:16:51;;;;;;;6.03;2.20;;;;;;;3.56;100.00;103099.06;6328260;28;20454;-74
2024/01/27 08:19:52;;;;;;;13.88;2.08;;;;;;;3.74;100.00;103094.09;6342639;28;20047;-74
2024/01/27 08:22:54;;;;;;;9.52;2.42;;;;;;;3.66;100.00;103095.72;6345046;28;20044;-76
2024/01/27 08:25:55;;;;;;;10.10;2.10;;;;;;;3.66;100.00;103092.25;6341776;28;20044;-74
2024/01/27 08:28:58;;;;;;;14.45;2.63;;;;;;;3.62;100.00;103087.88;6349851;28;20051;-74
2024/01/27 08:32:00;;;;;;;9.57;1.98;;;;;;;3.58;100.00;103094.75;6344724;28;20054;-74
2024/01/27 08:35:02;;;;;;;12.25;2.08;;;;;;;3.71;100.00;103106.19;6353028;28;20180;-74
2024/01/27 08:38:03;;;;;;;10.70;2.45;;;;;;;3.72;100.00;103106.19;6352235;28;20051;-74
2024/01/27 08:41:05;;;;;;;24.50;2.80;;;;;;;3.63;100.00;103116.47;6344429;28;20058;-74
2024/01/27 08:44:07;;;;;;;7.50;2.00;;;;;;;3.75;100.00;103116.66;6352750;28;20360;-74
2024/01/27 08:47:09;;;;;;;17.40;3.22;;;;;;;3.60;100.00;103123.38;6352811;28;20047;-74
2024/01/27 08:50:11;;;;;;;16.83;3.20;;;;;;;3.62;100.00;103125.13;6352744;28;20047;-74
2024/01/27 08:53:13;;;;;;;17.88;2.67;;;;;;;3.71;100.00;103127.00;6352355;28;20044;-74
2024/01/27 08:56:14;;;;;;;11.57;4.10;;;;;;;3.80;100.00;103134.91;6343721;28;20051;-74
2024/01/27 08:59:17;;;;;;;12.95;3.17;;;;;;;3.97;100.00;103137.75;6344184;28;20055;-73
2024/01/27 09:02:18;;;;;;;12.10;3.33;;;;;;;4.26;100.00;103138.94;6351474;28;20048;-74
2024/01/27 09:05:20;;;;;;;17.55;3.55;;;;;;;4.20;100.00;103125.88;6345084;28;20059;-74
2024/01/27 09:08:21;;;;;;;16.35;4.70;;;;;;;4.22;100.00;103133.69;6345973;28;20051;-74
2024/01/27 09:11:23;;;;;;;12.70;3.17;;;;;;;4.29;100.00;103138.13;6345449;28;20047;-75
2024/01/27 09:14:26;;;;;;;15.38;4.15;;;;;;;4.49;100.00;103138.34;6352036;28;20059;-74
2024/01/27 09:17:27;;;;;;;16.38;3.58;;;;;;;4.58;100.00;103138.41;6349474;28;20044;-74
2024/01/27 09:20:29;;;;;;;22.15;4.28;;;;;;;4.62;100.00;103148.00;6346018;28;20132;-74
2024/01/27 09:23:30;;;;;;;23.88;7.32;;;;;;;4.73;100.00;103137.72;6351747;28;20051;-74
2024/01/27 09:26:31;;;;;;;12.45;3.22;;;;;;;4.66;100.00;103152.41;6347562;28;20051;-73
2024/01/27 09:29:34;;;;;;;19.05;3.53;;;;;;;4.66;100.00;103154.13;6346985;28;20052;-73
2024/01/27 09:32:35;;;;;;;14.88;4.05;;;;;;;4.66;100.00;103155.00;6343236;28;20040;-73
2024/01/27 09:35:37;;;;;;;16.70;3.55;;;;;;;4.73;100.00;103168.97;6342948;28;20058;-73
2024/01/27 09:38:38;;;;;;;17.90;4.10;;;;;;;4.75;100.00;103168.13;6351699;28;20044;-73
2024/01/27 09:41:40;;;;;;;12.85;3.60;;;;;;;4.65;100.00;103171.50;6350512;28;20052;-73
2024/01/27 09:44:44;;;;;;;11.23;3.60;;;;;;;4.81;100.00;103181.22;6351253;28;20048;-74
2024/01/27 09:47:47;;;;;;;14.50;4.38;;;;;;;4.85;100.00;103179.50;6349422;28;20052;-73
2024/01/27 09:50:50;;;;;;;14.98;3.95;;;;;;;4.93;100.00;103182.19;6351413;28;20054;-73
2024/01/27 09:53:51;;;;;;;11.23;3.65;;;;;;;4.93;100.00;103179.59;6351276;28;20040;-74
2024/01/27 09:56:54;;;;;;;24.13;4.25;;;;;;;5.02;100.00;103185.75;6350718;28;20052;-73
2024/01/27 09:59:57;;;;;;;11.15;3.53;;;;;;;5.08;100.00;103183.19;6351390;28;20351;-73
2024/01/27 10:02:59;;;;;;;13.23;4.25;;;;;;;5.16;100.00;103187.59;6351081;28;20050;-73
2024/01/27 10:06:01;;;;;;;14.23;3.90;;;;;;;5.12;100.00;103176.25;6351338;28;20062;-73
2024/01/27 10:09:03;;;;;;;15.35;4.15;;;;;;;5.21;100.00;103188.50;6351063;28;20343;-73
2024/01/27 10:12:05;;;;;;;13.88;3.85;;;;;;;5.21;100.00;103189.38;6351097;28;20047;-73
2024/01/27 10:15:19;;;;;;;10.48;3.47;;;;;;;5.22;100.00;103191.16;6350530;28;20090;-73
2024/01/27 10:18:21;;;;;;;17.08;4.55;;;;;;;5.22;100.00;103178.13;6350749;28;20055;-73
2024/01/27 10:21:25;;;;;;;19.60;4.82;;;;;;;5.22;100.00;103180.72;6350578;28;20355;-73
2024/01/27 10:24:27;;;;;;;17.10;4.20;;;;;;;5.35;100.00;103179.91;6350753;28;20070;-73
2024/01/27 10:27:28;;;;;;;17.20;4.78;;;;;;;5.37;100.00;103176.47;6350240;28;20440;-73
2024/01/27 10:30:31;;;;;;;8.85;4.38;;;;;;;5.42;100.00;103178.25;6350772;28;20047;-73
2024/01/27 10:33:32;;;;;;;11.18;4.68;;;;;;;5.34;100.00;103166.88;6350473;28;20459;-74
2024/01/27 10:36:40;;;;;;;13.57;4.22;;;;;;;5.54;100.00;103167.00;6349978;28;20428;-73
2024/01/27 10:39:42;;;;;;;15.53;5.23;;;;;;;5.68;100.00;103159.28;6350630;28;20048;-74
2024/01/27 10:42:45;;;;;;;16.92;4.43;;;;;;;5.67;100.00;103158.41;6349965;28;20039;-73
2024/01/27 10:45:47;;;;;;;10.80;4.35;;;;;;;5.43;100.00;103172.16;6350747;28;20088;-74
2024/01/27 10:48:52;;;;;;;23.63;5.20;;;;;;;5.49;100.00;103166.13;6350079;28;20047;-73
2024/01/27 10:51:55;;;;;;;12.82;3.83;;;;;;;5.60;100.00;103154.91;6350454;28;20166;-73
2024/01/27 10:55:00;;;;;;;19.13;3.95;;;;;;;5.66;100.00;103142.75;6349938;28;20044;-73
2024/01/27 10:58:02;;;;;;;18.58;4.53;;;;;;;5.72;100.00;103156.72;6350056;28;20064;-73
2024/01/27 11:01:06;;;;;;;12.57;4.20;;;;;;;5.79;100.00;103150.66;6354957;28;20505;-73
2024/01/27 11:04:13;;;;;;;17.85;4.13;;;;;;;5.82;100.00;103157.63;6355384;28;20046;-73
2024/01/27 11:07:14;;;;;;;15.10;4.60;;;;;;;5.84;100.00;103163.72;6355053;28;20051;-74
2024/01/27 11:10:16;;;;;;;13.93;3.80;;;;;;;5.99;100.00;103156.00;6355393;28;20044;-73
2024/01/27 11:13:17;;;;;;;16.95;4.53;;;;;;;6.00;100.00;103162.13;6355039;28;20051;-73
2024/01/27 11:16:20;;;;;;;14.40;4.35;;;;;;;6.18;100.00;103169.16;6355016;28;20043;-74
2024/01/27 11:19:22;;;;;;;18.45;4.30;;;;;;;6.20;100.00;103168.28;6355208;28;20051;-74
2024/01/27 11:22:26;;;;;;;10.88;3.22;;;;;;;6.42;100.00;103181.41;6354736;28;20047;-73
2024/01/27 11:25:28;;;;;;;12.75;4.32;;;;;;;6.49;100.00;103175.31;6354966;28;20130;-73
2024/01/27 11:28:29;;;;;;;20.35;4.40;;;;;;;6.67;100.00;103172.75;6354324;28;20344;-73
2024/01/27 11:31:32;;;;;;;15.50;4.10;;;;;;;6.77;100.00;103169.31;6354799;28;20059;-73
2024/01/27 11:34:43;;;;;;;18.65;3.60;;;;;;;6.70;100.00;103158.84;6354506;28;20432;-73
2024/01/27 11:37:45;;;;;;;16.80;3.35;;;;;;;6.85;100.00;103158.84;6354512;28;20527;-73
2024/01/27 11:40:47;;;;;;;18.85;4.28;;;;;;;6.77;100.00;103152.75;6354429;28;20054;-74
2024/01/27 11:43:52;;;;;;;15.18;4.55;;;;;;;6.86;100.00;103171.06;6354249;28;20048;-74
2024/01/27 11:46:55;;;;;;;14.18;3.20;;;;;;;7.04;100.00;103176.31;6353858;28;20055;-74
2024/01/27 11:49:56;;;;;;;24.85;5.63;;;;;;;7.08;100.00;103166.69;6354644;28;20062;-74
2024/01/27 11:52:58;;;;;;;17.80;6.18;;;;;;;7.16;100.00;103164.09;6353881;28;20355;-74
2024/01/27 11:56:01;;;;;;;27.48;6.32;;;;;;;7.11;100.00;103161.47;6354678;28;20048;-73
2024/01/27 11:59:02;;;;;;;22.25;4.50;;;;;;;6.95;100.00;103162.34;6353997;28;20058;-73
2024/01/27 12:02:05;;;;;;;10.50;3.33;;;;;;;7.03;100.00;103168.44;6353896;28;20048;-73
2024/01/27 12:05:08;;;;;;;16.55;2.97;;;;;;;7.12;100.00;103176.28;6353695;28;20070;-73
2024/01/27 12:08:10;;;;;;;15.48;4.03;;;;;;;7.18;100.00;103181.53;6353435;28;20365;-76
2024/01/27 12:11:11;;;;;;;21.48;4.35;;;;;;;7.38;100.00;103185.00;6353175;28;20051;-76
2024/01/27 12:14:13;;;;;;;17.10;5.05;;;;;;;7.58;100.00;103186.72;6353563;28;20043;-73
2024/01/27 12:17:16;;;;;;;14.73;3.55;;;;;;;7.69;100.00;103187.59;6353546;28;20047;-76
2024/01/27 12:20:17;;;;;;;16.92;4.10;;;;;;;7.78;100.00;103200.66;6353533;28;20475;-76
2024/01/27 12:23:19;;;;;;;13.93;2.63;;;;;;;7.74;100.00;103190.19;6353397;28;20113;-76
2024/01/27 12:26:21;;;;;;;17.63;3.03;;;;;;;7.80;100.00;103174.47;6352830;28;20458;-76
2024/01/27 12:29:22;;;;;;;24.30;4.53;;;;;;;7.63;100.00;103191.09;6353519;28;20055;-76
2024/01/27 12:32:25;;;;;;;11.68;2.75;;;;;;;7.77;100.00;103169.25;6348465;22;20447;-71
2024/01/27 12:35:28;;;;;;;14.55;2.95;;;;;;;7.84;100.00;103168.34;6322222;28;20049;-70
2024/01/27 12:38:30;;;;;;;10.40;3.30;;;;;;;7.94;100.00;103166.56;6302520;28;20048;-70
2024/01/27 12:41:32;;;;;;;11.10;2.60;;;;;;;7.87;100.00;103179.69;6323549;28;20048;-71
2024/01/27 12:44:34;;;;;;;13.45;3.35;;;;;;;7.94;100.00;103180.53;6327719;28;20044;-69
2024/01/27 12:47:37;;;;;;;7.30;3.00;;;;;;;8.05;100.00;103180.50;6327218;28;20059;-71
2024/01/27 12:50:38;;;;;;;5.60;2.65;;;;;;;8.05;100.00;103175.25;6327464;28;20040;-70
2024/01/27 12:53:43;;;;;;;15.13;2.85;;;;;;;7.94;100.00;103177.03;6327141;28;20051;-71
2024/01/27 12:56:44;;;;;;;11.43;2.92;;;;;;;7.92;100.00;103179.66;6327230;28;20044;-71
2024/01/27 12:59:46;;;;;;;14.40;3.25;;;;;;;7.79;100.00;103173.59;6326907;28;20377;-72
2024/01/27 13:02:48;;;;;;;20.48;3.30;;;;;;;7.83;100.00;103164.84;6326829;28;20040;-72
2024/01/27 13:05:50;;;;;;;22.65;3.15;;;;;;;7.88;100.00;103170.06;6327105;28;20055;-71
2024/01/27 13:08:52;;;;;;;12.20;2.85;;;;;;;7.88;100.00;103167.47;6326988;28;20052;-74
2024/01/27 13:11:53;;;;;;;13.02;3.10;;;;;;;7.78;100.00;103166.63;6306294;28;20044;-78
2024/01/27 13:14:55;;;;;;;13.88;3.72;;;;;;;7.87;100.00;103165.72;6301444;28;20085;-72
2024/01/27 13:17:57;;;;;;;12.07;3.15;;;;;;;8.01;100.00;103160.44;6299747;28;20048;-71
2024/01/27 13:20:59;;;;;;;11.23;2.58;;;;;;;7.93;100.00;103159.59;6291022;28;20053;-70
2024/01/27 13:24:00;;;;;;;10.73;2.30;;;;;;;8.03;100.00;103151.69;6296250;28;20051;-71
2024/01/27 13:27:02;;;;;;;9.50;2.97;;;;;;;8.04;100.00;103155.16;6300765;28;20118;-71
2024/01/27 13:30:04;;;;;;;16.10;2.90;;;;;;;8.02;100.00;103155.19;6300026;28;20052;-72
2024/01/27 13:33:07;;;;;;;9.18;2.25;;;;;;;8.03;100.00;103151.69;6297523;28;20399;-72
2024/01/27 13:36:08;;;;;;;9.82;2.45;;;;;;;8.00;100.00;103164.81;6295936;28;20048;-84
2024/01/27 13:39:09;;;;;;;24.02;4.07;;;;;;;7.96;100.00;103162.22;6301036;28;20055;-71
2024/01/27 13:42:11;;;;;;;13.55;2.58;;;;;;;8.06;100.00;103163.91;6299835;28;20056;-71
2024/01/27 13:45:12;;;;;;;11.93;2.33;;;;;;;8.07;100.00;103153.41;6291189;28;20131;-72
2024/01/27 13:48:15;;;;;;;12.00;2.58;;;;;;;8.01;100.00;103166.53;6299866;28;20052;-72
2024/01/27 13:51:17;;;;;;;8.55;1.77;;;;;;;8.14;100.00;103170.84;6290230;28;20090;-72
2024/01/27 13:54:18;;;;;;;24.73;2.70;;;;;;;8.07;100.00;103170.88;6293487;28;20052;-73
2024/01/27 13:57:19;;;;;;;10.95;3.13;;;;;;;8.00;100.00;103162.19;6296775;28;20357;-72
2024/01/27 14:00:21;;;;;;;7.38;2.00;;;;;;;8.04;100.00;103169.16;6297660;28;20353;-73